createdAt,value
2022-08-31T00:01:32.749Z,5.50
2022-08-31T00:04:03.421Z,5.70
2022-08-31T00:06:32.535Z,5.60
2022-08-31T00:09:00.957Z,5.80
2022-08-31T00:11:31.133Z,5.20
2022-08-31T00:14:01.603Z,6.03
2022-08-31T00:16:35.694Z,5.80
2022-08-31T00:19:04.870Z,5.23
2022-08-31T00:21:33.876Z,5.33
2022-08-31T00:24:02.063Z,6.40
2022-08-31T00:26:30.388Z,5.20
2022-08-31T00:28:58.644Z,5.03
2022-08-31T00:31:26.955Z,6.43
2022-08-31T00:33:56.657Z,5.73
2022-08-31T00:36:27.198Z,5.00
2022-08-31T00:38:57.015Z,5.83
2022-08-31T00:41:32.459Z,5.53
2022-08-31T00:44:03.645Z,5.30
2022-08-31T00:46:34.922Z,5.67
2022-08-31T00:49:08.854Z,5.17
2022-08-31T00:51:42.456Z,5.00
2022-08-31T00:54:14.146Z,5.60
2022-08-31T00:56:44.868Z,5.13
2022-08-31T00:59:14.102Z,5.87
2022-08-31T01:01:42.743Z,5.30
2022-08-31T01:04:12.869Z,5.90
2022-08-31T01:06:42.609Z,5.93
2022-08-31T01:09:12.459Z,5.30
2022-08-31T01:11:42.419Z,5.30
2022-08-31T01:14:12.752Z,5.80
2022-08-31T01:16:45.118Z,5.10
2022-08-31T01:19:25.552Z,5.53
2022-08-31T01:22:03.283Z,5.60
2022-08-31T01:24:35.473Z,4.93
2022-08-31T01:27:04.907Z,4.90
2022-08-31T01:29:33.795Z,4.97
2022-08-31T01:32:02.740Z,5.80
2022-08-31T01:34:31.144Z,4.70
2022-08-31T01:36:59.768Z,5.60
2022-08-31T01:39:28.495Z,4.83
2022-08-31T01:41:58.204Z,4.40
2022-08-31T01:44:28.486Z,4.73
2022-08-31T01:46:57.383Z,5.03
2022-08-31T01:49:28.536Z,5.00
2022-08-31T01:51:56.930Z,5.00
2022-08-31T01:54:27.868Z,4.27
2022-08-31T01:56:58.714Z,4.10
2022-08-31T01:59:41.455Z,4.13
2022-08-31T02:02:38.915Z,3.57
2022-08-31T02:05:10.819Z,5.20
2022-08-31T02:07:39.484Z,4.37
2022-08-31T02:10:08.348Z,4.20
2022-08-31T02:12:37.982Z,3.80
2022-08-31T02:15:09.915Z,4.30
2022-08-31T02:17:38.159Z,4.50
2022-08-31T02:20:08.219Z,4.33
2022-08-31T02:22:36.806Z,3.77
2022-08-31T02:25:06.403Z,4.20
2022-08-31T02:27:39.768Z,4.30
2022-08-31T02:30:11.871Z,3.90
2022-08-31T02:32:40.174Z,4.03
2022-08-31T02:35:09.680Z,4.30
2022-08-31T02:37:38.700Z,3.70
2022-08-31T02:40:12.174Z,4.47
2022-08-31T02:42:52.755Z,4.37
2022-08-31T02:45:25.330Z,3.60
2022-08-31T02:47:57.727Z,3.83
2022-08-31T02:50:30.183Z,3.17
2022-08-31T02:53:00.191Z,4.00
2022-08-31T02:55:29.461Z,3.90
2022-08-31T02:57:59.369Z,3.90
2022-08-31T03:00:27.797Z,3.67
2022-08-31T03:02:55.969Z,3.50
2022-08-31T03:05:26.270Z,3.40
2022-08-31T03:07:54.757Z,3.10
2022-08-31T03:10:24.739Z,2.90
2022-08-31T03:12:53.971Z,3.13
2022-08-31T03:15:25.663Z,3.40
2022-08-31T03:17:54.418Z,3.27
2022-08-31T03:20:26.831Z,3.37
2022-08-31T03:22:55.643Z,2.57
2022-08-31T03:25:28.029Z,3.03
2022-08-31T03:27:56.475Z,2.77
2022-08-31T03:30:28.240Z,2.40
2022-08-31T03:33:07.206Z,2.97
2022-08-31T03:35:36.519Z,2.53
2022-08-31T03:38:05.603Z,2.50
2022-08-31T03:40:34.490Z,2.90
2022-08-31T03:43:03.151Z,3.00
2022-08-31T03:45:33.601Z,2.13
2022-08-31T03:48:01.816Z,2.73
2022-08-31T03:50:30.531Z,2.10
2022-08-31T03:53:05.336Z,2.50
2022-08-31T03:55:34.725Z,2.70
2022-08-31T03:58:04.746Z,3.00
2022-08-31T04:00:36.558Z,2.73
2022-08-31T04:03:14.086Z,2.77
2022-08-31T04:06:00.985Z,2.33
2022-08-31T04:08:56.147Z,2.67
2022-08-31T04:11:58.183Z,2.80
2022-08-31T04:14:45.226Z,3.03
2022-08-31T04:17:47.098Z,2.90
2022-08-31T04:20:44.247Z,2.67
2022-08-31T04:23:13.409Z,2.87
2022-08-31T04:25:48.027Z,3.10
2022-08-31T04:28:16.221Z,3.70
2022-08-31T04:30:48.684Z,3.20
2022-08-31T04:33:19.374Z,3.97
2022-08-31T04:35:48.512Z,3.40
2022-08-31T04:38:16.764Z,3.77
2022-08-31T04:40:47.186Z,3.70
2022-08-31T04:43:15.871Z,3.80
2022-08-31T04:45:46.229Z,3.27
2022-08-31T04:48:15.514Z,3.20
2022-08-31T04:50:46.208Z,3.13
2022-08-31T04:53:15.053Z,3.07
2022-08-31T04:55:44.423Z,2.70
2022-08-31T04:58:15.310Z,2.47
2022-08-31T05:00:44.227Z,2.60
2022-08-31T05:03:24.331Z,2.33
2022-08-31T05:05:57.340Z,3.57
2022-08-31T05:08:26.264Z,2.80
2022-08-31T05:10:55.426Z,2.77
2022-08-31T05:13:24.364Z,3.30
2022-08-31T05:15:55.125Z,2.90
2022-08-31T05:18:25.712Z,2.80
2022-08-31T05:21:11.335Z,2.60
2022-08-31T05:23:40.245Z,2.63
2022-08-31T05:26:09.773Z,2.73
2022-08-31T05:28:39.290Z,3.10
2022-08-31T05:31:07.884Z,2.93
2022-08-31T05:33:41.658Z,3.30
2022-08-31T05:36:12.565Z,3.73
2022-08-31T05:38:41.661Z,3.60
2022-08-31T05:41:11.286Z,3.37
2022-08-31T05:43:41.336Z,3.30
2022-08-31T05:46:11.860Z,3.77
2022-08-31T05:48:41.440Z,3.13
2022-08-31T05:51:17.365Z,3.40
2022-08-31T05:53:45.951Z,3.70
2022-08-31T05:56:19.327Z,3.30
2022-08-31T05:58:50.336Z,3.40
2022-08-31T06:01:22.353Z,3.03
2022-08-31T06:04:16.452Z,3.50
2022-08-31T06:06:47.137Z,3.30
2022-08-31T06:09:17.692Z,3.43
2022-08-31T06:11:46.852Z,2.60
2022-08-31T06:14:19.290Z,2.70
2022-08-31T06:16:49.866Z,3.27
2022-08-31T06:19:20.812Z,3.03
2022-08-31T06:21:52.244Z,3.17
2022-08-31T06:24:26.825Z,3.00
2022-08-31T06:26:59.367Z,2.43
2022-08-31T06:29:36.201Z,2.20
2022-08-31T06:32:08.092Z,2.53
2022-08-31T06:34:40.282Z,2.60
2022-08-31T06:37:18.500Z,2.77
2022-08-31T06:40:15.726Z,2.70
2022-08-31T06:43:10.082Z,2.43
2022-08-31T06:45:58.959Z,3.03
2022-08-31T06:48:32.739Z,2.97
2022-08-31T06:51:01.639Z,2.50
2022-08-31T06:53:31.875Z,3.23
2022-08-31T06:56:05.964Z,2.57
2022-08-31T06:59:08.321Z,3.00
2022-08-31T07:01:57.100Z,2.70
2022-08-31T07:04:34.678Z,2.47
2022-08-31T07:07:03.191Z,2.77
2022-08-31T07:09:33.475Z,3.00
2022-08-31T07:12:01.763Z,2.80
2022-08-31T07:14:30.776Z,2.63
2022-08-31T07:17:02.980Z,2.60
2022-08-31T07:19:33.070Z,2.73
2022-08-31T07:22:06.951Z,3.37
2022-08-31T07:24:38.139Z,2.73
2022-08-31T07:27:10.671Z,2.40
2022-08-31T07:29:55.749Z,3.00
2022-08-31T07:32:25.496Z,2.90
2022-08-31T07:34:59.753Z,2.97
2022-08-31T07:37:49.147Z,3.50
2022-08-31T07:40:37.244Z,3.50
2022-08-31T07:43:08.044Z,3.00
2022-08-31T07:45:39.633Z,3.70
2022-08-31T07:48:08.851Z,3.53
2022-08-31T07:50:51.097Z,4.10
2022-08-31T07:53:25.005Z,3.93
2022-08-31T07:56:20.436Z,4.00
2022-08-31T07:58:51.315Z,4.10
2022-08-31T08:01:22.717Z,4.27
2022-08-31T08:03:55.058Z,4.20
2022-08-31T08:06:46.170Z,5.13
2022-08-31T08:09:40.600Z,5.23
2022-08-31T08:12:28.972Z,4.83
2022-08-31T08:15:11.059Z,4.93
2022-08-31T08:17:49.566Z,5.10
2022-08-31T08:20:37.333Z,4.50
2022-08-31T08:23:14.101Z,5.77
2022-08-31T08:26:21.565Z,4.67
2022-08-31T08:29:07.875Z,4.00
2022-08-31T08:31:42.043Z,5.23
2022-08-31T08:34:10.991Z,4.30
2022-08-31T08:36:40.872Z,3.37
2022-08-31T08:39:13.006Z,4.30
2022-08-31T08:41:47.178Z,4.90
2022-08-31T08:44:18.854Z,4.30
2022-08-31T08:46:54.810Z,5.60
2022-08-31T08:49:35.870Z,4.63
2022-08-31T08:52:11.986Z,4.60
2022-08-31T08:54:45.579Z,4.50
2022-08-31T08:57:16.365Z,4.70
2022-08-31T08:59:49.471Z,4.17
2022-08-31T09:02:21.882Z,4.70
2022-08-31T09:05:32.143Z,4.60
2022-08-31T09:08:34.971Z,4.60
2022-08-31T09:11:17.548Z,4.50
2022-08-31T09:13:58.210Z,4.20
2022-08-31T09:16:40.099Z,4.50
2022-08-31T09:19:13.796Z,4.13
2022-08-31T09:21:47.111Z,4.00
2022-08-31T09:24:19.879Z,4.30
2022-08-31T09:27:18.618Z,4.80
2022-08-31T09:29:49.165Z,3.90
2022-08-31T09:32:26.453Z,4.50
2022-08-31T09:34:59.112Z,5.13
2022-08-31T09:37:33.378Z,5.27
2022-08-31T09:40:23.308Z,4.90
2022-08-31T09:43:05.812Z,3.83
2022-08-31T09:45:41.837Z,4.63
2022-08-31T09:48:12.412Z,4.67
2022-08-31T09:50:45.132Z,3.90
2022-08-31T09:53:39.530Z,4.13
2022-08-31T09:56:17.663Z,4.47
2022-08-31T09:58:49.267Z,4.93
2022-08-31T10:01:27.268Z,4.30
2022-08-31T10:04:17.156Z,3.80
2022-08-31T10:06:50.828Z,3.70
2022-08-31T10:09:30.215Z,3.90
2022-08-31T10:12:04.301Z,2.97
2022-08-31T10:14:41.744Z,3.00
2022-08-31T10:17:15.215Z,3.27
2022-08-31T10:19:54.276Z,3.67
2022-08-31T10:22:31.658Z,3.10
2022-08-31T10:25:23.562Z,2.80
2022-08-31T10:27:56.535Z,3.17
2022-08-31T10:30:30.465Z,3.30
2022-08-31T10:33:09.678Z,3.23
2022-08-31T10:35:50.679Z,4.13
2022-08-31T10:38:27.232Z,3.33
2022-08-31T10:41:05.120Z,4.60
2022-08-31T10:43:40.037Z,4.30
2022-08-31T10:46:08.328Z,4.10
2022-08-31T10:48:44.217Z,3.97
2022-08-31T10:51:22.471Z,4.20
2022-08-31T10:54:13.450Z,4.40
2022-08-31T10:56:56.145Z,5.60
2022-08-31T10:59:33.956Z,5.60
2022-08-31T11:02:22.239Z,4.60
2022-08-31T11:04:58.336Z,4.70
2022-08-31T11:07:43.692Z,5.07
2022-08-31T11:10:22.224Z,5.37
2022-08-31T11:12:57.571Z,5.00
2022-08-31T11:15:49.162Z,6.60
2022-08-31T11:18:53.171Z,6.00
2022-08-31T11:21:38.659Z,6.53
2022-08-31T11:24:31.638Z,6.27
2022-08-31T11:27:11.919Z,6.30
2022-08-31T11:29:43.918Z,6.30
2022-08-31T11:32:21.152Z,5.63
2022-08-31T11:34:53.661Z,5.80
2022-08-31T11:37:54.857Z,4.63
2022-08-31T11:41:11.382Z,4.80
2022-08-31T11:43:53.819Z,5.40
2022-08-31T11:46:43.276Z,6.23
2022-08-31T11:49:36.825Z,6.00
2022-08-31T11:52:12.676Z,5.30
2022-08-31T11:55:22.082Z,4.63
2022-08-31T11:58:18.543Z,4.80
2022-08-31T12:01:03.168Z,5.50
2022-08-31T12:03:50.590Z,4.10
2022-08-31T12:07:11.127Z,5.70
2022-08-31T12:10:15.830Z,4.40
2022-08-31T12:13:07.613Z,4.10
2022-08-31T12:15:49.576Z,5.13
2022-08-31T12:18:34.984Z,4.03
2022-08-31T12:21:27.564Z,4.87
2022-08-31T12:24:15.403Z,4.40
2022-08-31T12:27:02.631Z,4.43
2022-08-31T12:29:32.746Z,4.80
2022-08-31T12:32:15.091Z,5.03
2022-08-31T12:34:50.276Z,5.23
2022-08-31T12:37:27.594Z,5.13
2022-08-31T12:40:15.720Z,4.60
2022-08-31T12:42:56.399Z,4.77
2022-08-31T12:46:02.795Z,4.57
2022-08-31T12:48:46.231Z,5.67
2022-08-31T12:51:28.116Z,5.20
2022-08-31T12:54:19.115Z,4.77
2022-08-31T12:56:55.609Z,5.30
2022-08-31T12:59:57.327Z,5.23
2022-08-31T13:02:22.510Z,5.37
2022-08-31T13:04:51.163Z,4.80
2022-08-31T13:07:24.406Z,4.83
2022-08-31T13:10:07.349Z,6.00
2022-08-31T13:12:36.404Z,5.37
2022-08-31T13:15:06.325Z,5.90
2022-08-31T13:17:39.742Z,5.53
2022-08-31T13:20:08.934Z,5.40
2022-08-31T13:22:41.393Z,4.80
2022-08-31T13:25:19.360Z,5.27
2022-08-31T13:27:50.082Z,5.57
2022-08-31T13:30:21.347Z,5.60
2022-08-31T13:32:51.186Z,5.10
2022-08-31T13:35:22.553Z,4.93
2022-08-31T13:38:05.287Z,4.83
2022-08-31T13:40:37.537Z,5.67
2022-08-31T13:43:08.640Z,5.40
2022-08-31T13:45:43.154Z,5.50
2022-08-31T13:48:19.642Z,5.90
2022-08-31T13:50:52.942Z,6.40
2022-08-31T13:53:39.862Z,6.47
2022-08-31T13:56:44.401Z,6.20
2022-08-31T13:59:32.911Z,7.10
2022-08-31T14:02:05.852Z,8.10
2022-08-31T14:04:48.567Z,7.07
2022-08-31T14:07:21.546Z,7.40
2022-08-31T14:09:55.053Z,6.50
2022-08-31T14:12:36.412Z,7.90
2022-08-31T14:15:18.563Z,7.13
2022-08-31T14:21:03.980Z,7.13
2022-08-31T14:23:36.064Z,7.77
2022-08-31T14:26:09.257Z,7.40
2022-08-31T14:28:40.646Z,7.30
2022-08-31T14:31:22.921Z,7.67
2022-08-31T14:34:08.803Z,7.10
2022-08-31T14:36:43.652Z,7.37
2022-08-31T14:39:12.133Z,8.57
2022-08-31T14:41:42.239Z,7.97
2022-08-31T14:44:11.496Z,7.30
2022-08-31T14:46:42.198Z,8.17
2022-08-31T14:49:11.056Z,7.40
2022-08-31T14:51:40.010Z,7.90
2022-08-31T14:54:09.260Z,6.90
2022-08-31T14:56:47.970Z,6.03
2022-08-31T14:59:19.163Z,6.30
2022-08-31T15:01:50.716Z,6.30
2022-08-31T15:04:21.771Z,7.20
2022-08-31T15:06:53.934Z,6.80
2022-08-31T15:09:23.222Z,6.80
2022-08-31T15:11:52.884Z,7.83
2022-08-31T15:14:21.908Z,6.13
2022-08-31T15:16:51.398Z,7.47
2022-08-31T15:19:19.760Z,7.60
2022-08-31T15:21:58.844Z,6.50
2022-08-31T15:24:31.536Z,7.73
2022-08-31T15:27:01.582Z,8.10
2022-08-31T15:29:30.388Z,8.20
2022-08-31T15:32:00.487Z,6.50
2022-08-31T15:34:31.451Z,7.63
2022-08-31T15:37:02.351Z,7.10
2022-08-31T15:39:33.042Z,7.50
2022-08-31T15:42:09.334Z,8.50
2022-08-31T15:44:38.032Z,8.20
2022-08-31T15:47:25.512Z,7.43
2022-08-31T15:49:54.669Z,8.57
2022-08-31T15:52:27.710Z,7.97
2022-08-31T15:54:57.488Z,9.00
2022-08-31T15:57:28.187Z,8.67
2022-08-31T15:59:57.876Z,7.97
2022-08-31T16:02:26.224Z,7.87
2022-08-31T16:04:57.703Z,8.10
2022-08-31T16:07:27.067Z,7.73
2022-08-31T16:09:55.391Z,8.77
2022-08-31T16:12:23.733Z,7.67
2022-08-31T16:14:54.471Z,8.00
2022-08-31T16:17:22.919Z,9.40
2022-08-31T16:19:51.643Z,8.47
2022-08-31T16:22:22.365Z,8.60
2022-08-31T16:24:53.874Z,8.80
2022-08-31T16:27:22.338Z,8.80
2022-08-31T16:29:52.864Z,8.13
2022-08-31T16:32:21.501Z,9.10
2022-08-31T16:34:49.779Z,10.00
2022-08-31T16:37:18.313Z,9.63
2022-08-31T16:39:48.007Z,9.90
2022-08-31T16:42:17.805Z,8.43
2022-08-31T16:44:48.057Z,9.50
2022-08-31T16:47:19.746Z,9.43
2022-08-31T16:49:47.231Z,9.60
2022-08-31T16:52:21.153Z,8.80
2022-08-31T16:54:51.040Z,9.13
2022-08-31T16:57:21.746Z,9.60
2022-08-31T16:59:51.429Z,10.17
2022-08-31T17:02:23.136Z,9.80
2022-08-31T17:04:53.357Z,9.70
2022-08-31T17:07:24.098Z,9.13
2022-08-31T17:09:56.719Z,9.57
2022-08-31T17:12:26.299Z,9.20
2022-08-31T17:14:56.153Z,9.13
2022-08-31T17:17:27.688Z,10.17
2022-08-31T17:19:57.289Z,8.43
2022-08-31T17:22:32.639Z,9.00
2022-08-31T17:25:03.049Z,9.60
2022-08-31T17:27:33.535Z,9.67
2022-08-31T17:30:05.867Z,8.33
2022-08-31T17:32:44.583Z,7.80
2022-08-31T17:35:18.953Z,8.20
2022-08-31T17:37:49.996Z,7.87
2022-08-31T17:40:18.511Z,8.83
2022-08-31T17:42:48.569Z,7.90
2022-08-31T17:45:17.641Z,8.40
2022-08-31T17:47:47.752Z,8.77
2022-08-31T17:50:19.676Z,8.00
2022-08-31T17:52:47.998Z,6.93
2022-08-31T17:55:16.287Z,7.57
2022-08-31T17:57:45.133Z,7.70
2022-08-31T18:00:14.847Z,7.37
2022-08-31T18:02:43.111Z,8.30
2022-08-31T18:05:16.322Z,8.80
2022-08-31T18:07:45.953Z,8.47
2022-08-31T18:10:14.971Z,7.83
2022-08-31T18:12:43.408Z,8.83
2022-08-31T18:15:14.378Z,9.33
2022-08-31T18:17:43.796Z,9.90
2022-08-31T18:20:13.906Z,8.80
2022-08-31T18:22:42.138Z,9.47
2022-08-31T18:25:11.659Z,9.77
2022-08-31T18:27:40.076Z,9.87
2022-08-31T18:30:13.830Z,9.40
2022-08-31T18:32:42.557Z,9.27
2022-08-31T18:35:17.681Z,9.90
2022-08-31T18:37:45.996Z,8.63
2022-08-31T18:40:32.175Z,8.30
2022-08-31T18:43:17.809Z,8.43
2022-08-31T18:45:49.257Z,7.37
2022-08-31T18:48:26.640Z,7.70
2022-08-31T18:50:58.888Z,8.50
2022-08-31T18:53:30.322Z,8.60
2022-08-31T18:56:05.408Z,8.30
2022-08-31T18:58:33.825Z,7.97
2022-08-31T19:01:02.445Z,8.53
2022-08-31T19:03:31.475Z,7.53
2022-08-31T19:06:01.084Z,9.77
2022-08-31T19:08:30.137Z,8.87
2022-08-31T19:10:58.837Z,8.73
2022-08-31T19:13:28.622Z,8.90
2022-08-31T19:16:01.290Z,7.97
2022-08-31T19:18:32.200Z,9.33
2022-08-31T19:21:12.115Z,10.70
2022-08-31T19:23:40.424Z,9.97
2022-08-31T19:26:09.027Z,8.50
2022-08-31T19:28:37.490Z,8.37
2022-08-31T19:31:06.533Z,8.03
2022-08-31T19:33:35.027Z,8.10
2022-08-31T19:36:05.902Z,8.03
2022-08-31T19:38:34.331Z,9.70
2022-08-31T19:41:04.080Z,8.07
2022-08-31T19:43:54.805Z,8.20
2022-08-31T19:46:23.915Z,8.70
2022-08-31T19:48:53.504Z,9.00
2022-08-31T19:51:24.403Z,9.47
2022-08-31T19:53:52.569Z,8.00
2022-08-31T19:56:23.469Z,8.30
2022-08-31T19:58:54.503Z,7.83
2022-08-31T20:01:25.469Z,8.33
2022-08-31T20:03:56.121Z,9.17
2022-08-31T20:06:26.560Z,8.57
2022-08-31T20:08:55.053Z,8.57
2022-08-31T20:11:26.578Z,8.40
2022-08-31T20:13:56.415Z,8.50
2022-08-31T20:16:33.863Z,7.13
2022-08-31T20:19:04.931Z,7.50
2022-08-31T20:21:36.176Z,7.87
2022-08-31T20:24:08.134Z,7.63
2022-08-31T20:26:47.344Z,7.07
2022-08-31T20:29:21.370Z,7.73
2022-08-31T20:31:52.407Z,6.40
2022-08-31T20:34:23.044Z,6.90
2022-08-31T20:37:00.427Z,6.57
2022-08-31T20:39:31.106Z,7.43
2022-08-31T20:42:00.715Z,6.30
2022-08-31T20:44:32.518Z,7.00
2022-08-31T20:47:20.249Z,6.10
2022-08-31T20:49:54.635Z,7.00
2022-08-31T20:52:27.091Z,7.20
2022-08-31T20:55:01.941Z,7.40
2022-08-31T20:57:31.962Z,8.30
2022-08-31T21:00:03.434Z,6.27
2022-08-31T21:02:33.335Z,7.37
2022-08-31T21:05:20.705Z,5.77
2022-08-31T21:07:52.599Z,7.30
2022-08-31T21:10:36.145Z,6.40
2022-08-31T21:13:11.015Z,6.10
2022-08-31T21:15:44.805Z,5.63
2022-08-31T21:18:17.341Z,7.23
2022-08-31T21:20:46.312Z,7.90
2022-08-31T21:23:17.026Z,7.00
2022-08-31T21:25:47.434Z,6.43
2022-08-31T21:28:17.449Z,6.00
2022-08-31T21:30:49.071Z,7.10
2022-08-31T21:33:17.668Z,6.40
2022-08-31T21:35:46.296Z,6.53
2022-08-31T21:38:16.152Z,6.30
2022-08-31T21:40:51.340Z,6.07
2022-08-31T21:43:19.823Z,6.97
2022-08-31T21:45:48.329Z,6.50
2022-08-31T21:48:25.919Z,6.10
2022-08-31T21:50:54.702Z,6.33
2022-08-31T21:53:27.107Z,6.10
2022-08-31T21:55:55.748Z,5.70
2022-08-31T21:58:23.926Z,6.63
2022-08-31T22:00:52.602Z,5.30
2022-08-31T22:03:21.250Z,6.43
2022-08-31T22:05:49.956Z,6.03
2022-08-31T22:08:18.978Z,5.00
2022-08-31T22:10:50.336Z,6.80
2022-08-31T22:13:19.695Z,5.40
2022-08-31T22:15:48.379Z,6.00
2022-08-31T22:21:05.924Z,6.70
2022-08-31T22:23:36.055Z,6.00
2022-08-31T22:26:06.065Z,6.70
2022-08-31T22:28:35.812Z,5.30
2022-08-31T22:31:07.364Z,5.70
2022-08-31T22:33:35.864Z,5.90
2022-08-31T22:36:04.751Z,5.83
2022-08-31T22:38:34.951Z,5.50
2022-08-31T22:41:09.831Z,5.50
2022-08-31T22:43:38.160Z,5.50
2022-08-31T22:46:10.079Z,5.80
2022-08-31T22:48:38.812Z,5.70
2022-08-31T22:51:10.648Z,5.83
2022-08-31T22:53:39.151Z,5.30
2022-08-31T22:56:12.169Z,5.33
2022-08-31T22:58:41.043Z,5.30
2022-08-31T23:01:18.265Z,7.33
2022-08-31T23:03:48.434Z,6.10
2022-08-31T23:06:16.906Z,5.03
2022-08-31T23:08:45.527Z,5.30
2022-08-31T23:11:15.508Z,6.07
2022-08-31T23:13:56.578Z,5.60
2022-08-31T23:16:28.132Z,5.80
2022-08-31T23:18:59.243Z,5.50
2022-08-31T23:21:29.512Z,5.27
2022-08-31T23:23:59.463Z,6.30
2022-08-31T23:26:30.651Z,5.50
2022-08-31T23:29:01.864Z,5.93
2022-08-31T23:31:30.237Z,5.93
2022-08-31T23:33:58.472Z,5.77
2022-08-31T23:36:29.673Z,5.63
2022-08-31T23:39:03.298Z,5.37
2022-08-31T23:41:38.886Z,5.10
2022-08-31T23:44:10.473Z,5.63
2022-08-31T23:46:40.668Z,5.50
2022-08-31T23:49:11.431Z,5.87
2022-08-31T23:51:40.435Z,5.80
2022-08-31T23:54:10.780Z,5.47
2022-08-31T23:56:42.356Z,5.17
2022-08-31T23:59:14.599Z,5.30
